createdAt,value
2018-11-25T00:00:12.488Z,41.27
2018-11-25T00:05:16.056Z,39.30
2018-11-25T00:10:19.630Z,37.80
2018-11-25T00:15:23.582Z,40.23
2018-11-25T00:20:27.070Z,39.50
2018-11-25T00:25:30.634Z,40.60
2018-11-25T00:30:34.337Z,41.10
2018-11-25T00:35:38.035Z,41.33
2018-11-25T00:40:41.563Z,39.73
2018-11-25T00:45:44.994Z,42.90
2018-11-25T00:50:48.567Z,40.30
2018-11-25T00:55:52.212Z,42.30
2018-11-25T01:00:55.774Z,40.43
2018-11-25T01:05:59.280Z,42.10
2018-11-25T01:11:02.727Z,43.17
2018-11-25T01:16:06.500Z,45.60
2018-11-25T01:21:10.038Z,43.07
2018-11-25T01:26:13.646Z,45.47
2018-11-25T01:31:17.248Z,45.00
2018-11-25T01:36:20.766Z,47.03
2018-11-25T01:41:24.318Z,46.40
2018-11-25T01:46:27.819Z,43.57
2018-11-25T01:51:31.251Z,47.83
2018-11-25T01:56:34.798Z,47.17
2018-11-25T02:01:38.380Z,43.13
2018-11-25T02:06:41.877Z,41.53
2018-11-25T02:11:45.346Z,46.87
2018-11-25T02:16:48.832Z,47.63
2018-11-25T02:21:53.144Z,48.03
2018-11-25T02:26:56.580Z,48.10
2018-11-25T02:32:00.146Z,45.77
2018-11-25T02:37:03.927Z,46.10
2018-11-25T02:42:07.595Z,40.77
2018-11-25T02:47:11.092Z,50.87
2018-11-25T02:52:14.548Z,48.87
2018-11-25T02:57:22.915Z,52.17
2018-11-25T03:02:26.586Z,51.97
2018-11-25T03:07:33.283Z,49.90
2018-11-25T03:12:36.741Z,50.37
2018-11-25T03:17:40.279Z,49.23
2018-11-25T03:22:43.816Z,53.63
2018-11-25T03:27:47.448Z,52.50
2018-11-25T03:32:52.641Z,52.47
2018-11-25T03:37:56.137Z,51.07
2018-11-25T03:42:59.690Z,51.20
2018-11-25T03:48:03.482Z,51.13
2018-11-25T03:53:07.009Z,52.83
2018-11-25T03:58:10.465Z,50.40
2018-11-25T04:03:14.127Z,52.37
2018-11-25T04:08:17.653Z,51.37
2018-11-25T04:13:21.077Z,51.43
2018-11-25T04:18:27.585Z,52.07
2018-11-25T04:23:31.192Z,48.53
2018-11-25T04:28:35.054Z,49.27
2018-11-25T04:33:38.632Z,47.97
2018-11-25T04:38:42.308Z,49.97
2018-11-25T04:43:45.785Z,47.03
2018-11-25T04:48:49.396Z,50.23
2018-11-25T04:53:52.974Z,51.27
2018-11-25T04:58:56.553Z,49.30
2018-11-25T05:04:00.177Z,48.50
2018-11-25T05:09:05.487Z,47.97
2018-11-25T05:14:09.130Z,46.30
2018-11-25T05:19:12.625Z,50.97
2018-11-25T05:24:16.262Z,48.50
2018-11-25T05:29:19.803Z,46.30
2018-11-25T05:34:23.346Z,51.43
2018-11-25T05:39:26.901Z,46.57
2018-11-25T05:44:30.403Z,51.03
2018-11-25T05:49:36.691Z,48.57
2018-11-25T05:54:37.396Z,50.63
2018-11-25T05:59:40.826Z,52.37
2018-11-25T06:04:44.440Z,52.10
2018-11-25T06:09:47.981Z,51.93
2018-11-25T06:14:51.672Z,51.60
2018-11-25T06:19:55.144Z,49.83
2018-11-25T06:24:58.674Z,46.77
2018-11-25T06:30:02.174Z,48.90
2018-11-25T06:35:07.929Z,51.57
2018-11-25T06:40:17.728Z,49.50
2018-11-25T06:45:29.801Z,50.80
2018-11-25T06:50:33.371Z,50.20
2018-11-25T06:55:37.327Z,49.53
2018-11-25T07:00:40.912Z,48.80
2018-11-25T07:05:44.902Z,50.37
2018-11-25T07:10:48.399Z,50.53
2018-11-25T07:15:51.888Z,52.30
2018-11-25T07:20:55.412Z,51.70
2018-11-25T07:25:58.910Z,50.83
2018-11-25T07:31:02.352Z,54.40
2018-11-25T07:36:06.681Z,51.17
2018-11-25T07:41:10.126Z,51.63
2018-11-25T07:46:13.627Z,51.30
2018-11-25T07:51:17.157Z,50.27
2018-11-25T07:56:20.902Z,51.73
2018-11-25T08:01:24.418Z,52.13
2018-11-25T08:06:28.296Z,53.53
2018-11-25T08:11:32.086Z,52.37
2018-11-25T08:16:35.709Z,54.80
2018-11-25T08:21:39.389Z,56.83
2018-11-25T08:26:42.950Z,52.83
2018-11-25T08:31:46.522Z,54.87
2018-11-25T08:36:50.019Z,55.47
2018-11-25T08:41:53.553Z,55.70
2018-11-25T08:46:57.192Z,58.03
2018-11-25T08:52:00.671Z,54.43
2018-11-25T08:57:04.236Z,59.97
2018-11-25T09:02:07.822Z,57.53
2018-11-25T09:07:11.385Z,56.70
2018-11-25T09:12:15.325Z,58.30
2018-11-25T09:17:19.137Z,58.30
2018-11-25T09:22:22.739Z,56.97
2018-11-25T09:27:26.334Z,59.43
2018-11-25T09:32:30.215Z,59.47
2018-11-25T09:37:34.389Z,57.03
2018-11-25T09:42:38.435Z,59.43
2018-11-25T09:47:42.558Z,66.97
2018-11-25T09:52:46.139Z,57.03
2018-11-25T09:57:55.412Z,53.40
2018-11-25T10:02:58.932Z,54.37
2018-11-25T10:08:02.715Z,51.50
2018-11-25T10:13:06.322Z,49.07
2018-11-25T10:18:10.249Z,50.03
2018-11-25T10:23:13.750Z,49.00
2018-11-25T10:28:17.540Z,43.97
2018-11-25T10:33:22.628Z,44.63
2018-11-25T10:38:26.496Z,45.80
2018-11-25T10:43:30.478Z,41.53
2018-11-25T10:48:34.301Z,37.60
2018-11-25T10:53:38.004Z,38.80
2018-11-25T10:58:41.806Z,34.80
2018-11-25T11:03:51.330Z,32.77
2018-11-25T11:08:55.089Z,37.67
2018-11-25T11:13:58.645Z,34.47
2018-11-25T11:19:02.140Z,37.73
2018-11-25T11:24:06.271Z,37.80
2018-11-25T11:29:09.879Z,38.90
2018-11-25T11:34:13.326Z,40.40
2018-11-25T11:39:16.898Z,40.23
2018-11-25T11:44:20.464Z,38.33
2018-11-25T11:49:23.938Z,38.13
2018-11-25T11:54:27.428Z,41.77
2018-11-25T11:59:30.916Z,46.20
2018-11-25T12:04:34.433Z,42.80
2018-11-25T12:09:38.013Z,47.70
2018-11-25T12:14:41.480Z,43.63
2018-11-25T12:19:45.053Z,43.87
2018-11-25T12:24:48.497Z,47.73
2018-11-25T12:29:52.342Z,47.03
2018-11-25T12:34:55.794Z,51.43
2018-11-25T12:39:59.333Z,49.73
2018-11-25T12:45:02.822Z,52.10
2018-11-25T12:50:10.429Z,51.77
2018-11-25T12:55:17.421Z,54.93
2018-11-25T13:00:31.213Z,54.07
2018-11-25T13:05:34.809Z,50.53
2018-11-25T13:10:38.376Z,55.00
2018-11-25T13:15:42.117Z,52.43
2018-11-25T13:20:45.580Z,53.13
2018-11-25T13:25:49.190Z,53.07
2018-11-25T13:30:52.725Z,53.77
2018-11-25T13:35:56.238Z,52.97
2018-11-25T13:40:59.993Z,51.20
2018-11-25T13:46:03.581Z,51.23
2018-11-25T13:51:08.870Z,50.27
2018-11-25T13:56:12.348Z,50.87
2018-11-25T14:01:16.012Z,48.40
2018-11-25T14:06:19.612Z,46.43
2018-11-25T14:11:23.066Z,48.53
2018-11-25T14:16:26.768Z,46.40
2018-11-25T14:21:31.520Z,44.47
2018-11-25T14:26:55.731Z,45.57
2018-11-25T14:31:59.205Z,45.27
2018-11-25T14:37:02.837Z,42.70
2018-11-25T14:42:06.394Z,43.70
2018-11-25T14:47:10.715Z,43.10
2018-11-25T14:52:14.245Z,44.10
2018-11-25T14:57:17.879Z,45.40
2018-11-25T15:02:21.489Z,45.40
2018-11-25T15:07:25.605Z,44.37
2018-11-25T15:12:29.097Z,45.47
2018-11-25T15:17:32.553Z,45.33
2018-11-25T15:22:36.098Z,44.90
2018-11-25T15:27:39.599Z,45.13
2018-11-25T15:32:43.180Z,45.10
2018-11-25T15:37:48.981Z,46.80
2018-11-25T15:42:52.833Z,45.03
2018-11-25T15:48:06.905Z,45.03
2018-11-25T15:53:11.280Z,46.07
2018-11-25T15:58:14.898Z,44.90
2018-11-25T16:03:18.377Z,45.60
2018-11-25T16:08:23.093Z,44.60
2018-11-25T16:13:26.576Z,44.97
2018-11-25T16:18:30.155Z,47.83
2018-11-25T16:23:33.784Z,44.67
2018-11-25T16:28:40.313Z,44.93
2018-11-25T16:33:43.889Z,47.27
2018-11-25T16:38:47.568Z,45.50
2018-11-25T16:43:51.699Z,46.40
2018-11-25T16:48:55.233Z,45.30
2018-11-25T16:53:58.821Z,46.20
2018-11-25T16:59:02.348Z,44.97
2018-11-25T17:04:06.284Z,45.90
2018-11-25T17:09:11.873Z,44.57
2018-11-25T17:14:15.441Z,43.33
2018-11-25T17:19:19.012Z,43.77
2018-11-25T17:24:22.815Z,46.07
2018-11-25T17:29:26.295Z,44.40
2018-11-25T17:34:29.836Z,44.83
2018-11-25T17:39:33.317Z,47.00
2018-11-25T17:44:36.979Z,44.33
2018-11-25T17:49:40.491Z,47.80
2018-11-25T17:54:45.084Z,44.20
2018-11-25T17:59:48.818Z,44.50
2018-11-25T18:04:52.628Z,43.33
2018-11-25T18:09:56.255Z,43.87
2018-11-25T18:14:59.942Z,41.33
2018-11-25T18:20:04.338Z,40.93
2018-11-25T18:25:08.076Z,38.13
2018-11-25T18:30:15.640Z,39.87
2018-11-25T18:35:19.150Z,41.83
2018-11-25T18:40:22.771Z,41.87
2018-11-25T18:45:26.508Z,40.10
2018-11-25T18:50:30.032Z,40.57
2018-11-25T18:55:31.811Z,39.37
2018-11-25T19:00:47.030Z,37.20
2018-11-25T19:05:50.614Z,33.87
2018-11-25T19:10:54.162Z,34.23
2018-11-25T19:15:58.208Z,33.97
2018-11-25T19:21:01.748Z,33.37
2018-11-25T19:26:06.231Z,33.30
2018-11-25T19:31:09.705Z,33.63
2018-11-25T19:36:13.233Z,33.07
2018-11-25T19:41:16.697Z,29.60
2018-11-25T19:46:21.208Z,30.60
2018-11-25T19:51:24.747Z,31.57
2018-11-25T19:56:28.254Z,30.83
2018-11-25T20:01:31.930Z,31.03
2018-11-25T20:06:35.805Z,31.03
2018-11-25T20:11:39.321Z,29.67
2018-11-25T20:16:48.468Z,31.67
2018-11-25T20:21:57.794Z,31.00
2018-11-25T20:27:08.249Z,29.57
2018-11-25T20:32:17.413Z,28.40
2018-11-25T20:37:26.751Z,28.70
2018-11-25T20:42:24.652Z,28.53
2018-11-25T20:47:28.264Z,30.10
2018-11-25T20:52:37.359Z,29.93
2018-11-25T20:57:40.927Z,30.87
2018-11-25T21:02:44.584Z,30.07
2018-11-25T21:07:48.098Z,32.70
2018-11-25T21:12:54.343Z,31.80
2018-11-25T21:17:57.900Z,33.07
2018-11-25T21:23:01.326Z,32.97
2018-11-25T21:28:08.725Z,32.30
2018-11-25T21:33:12.325Z,32.83
2018-11-25T21:38:16.040Z,31.50
2018-11-25T21:43:19.765Z,31.63
2018-11-25T21:48:23.624Z,31.40
2018-11-25T21:53:27.169Z,30.07
2018-11-25T21:58:30.817Z,35.63
2018-11-25T22:03:34.596Z,31.10
2018-11-25T22:08:38.439Z,31.57
2018-11-25T22:13:42.188Z,32.50
2018-11-25T22:18:45.911Z,30.83
2018-11-25T22:23:49.457Z,31.00
2018-11-25T22:28:52.954Z,30.13
2018-11-25T22:33:56.666Z,29.23
2018-11-25T22:39:00.165Z,29.20
2018-11-25T22:44:04.828Z,27.10
2018-11-25T22:49:08.440Z,27.57
2018-11-25T22:54:12.063Z,25.97
2018-11-25T22:59:15.490Z,25.60
2018-11-25T23:05:34.437Z,30.52
2018-11-25T23:10:38.049Z,25.37
2018-11-25T23:15:41.750Z,23.90
2018-11-25T23:20:45.384Z,22.90
2018-11-25T23:25:48.960Z,22.53
2018-11-25T23:30:52.508Z,23.00
2018-11-25T23:35:55.981Z,22.07
2018-11-25T23:40:59.569Z,20.47
2018-11-25T23:46:03.579Z,21.57
2018-11-25T23:51:07.225Z,21.00
2018-11-25T23:56:10.710Z,22.53
